Time;durP1;ratioP1;P1;durP2;ratioP2;P2;SDS_P1;SDS_P2;PMS_P1;PMS_P2;Temp;Humidity;BMP_temperature;BMP_pressure;BME280_temperature;BME280_humidity;BME280_pressure;Samples;Min_cycle;Max_cycle;Signal;HPM_P1;HPM_P2
2022/11/18 00:01:14;;;;;;;0.57;0.30;;;8.30;97.10;;;;;;5095882;28;20044;-86
2022/11/18 00:03:42;;;;;;;1.70;0.35;;;8.30;97.00;;;;;;5093374;28;20040;-86
2022/11/18 00:06:13;;;;;;;1.20;0.25;;;8.30;97.00;;;;;;5079804;28;20040;-86
2022/11/18 00:08:41;;;;;;;0.77;0.30;;;8.40;97.00;;;;;;5103227;28;20047;-85
2022/11/18 00:14:17;;;;;;;1.00;0.40;;;8.40;97.00;;;;;;5084340;28;20130;-85
2022/11/18 00:14:18;;;;;;;1.00;0.38;;;8.40;96.90;;;;;;5106404;28;20118;-85
2022/11/18 00:16:54;;;;;;;0.93;0.40;;;8.50;96.90;;;;;;5104774;28;20043;-85
2022/11/18 00:19:27;;;;;;;1.23;0.30;;;8.50;96.80;;;;;;5086488;28;20097;-85
2022/11/18 00:21:55;;;;;;;0.88;0.30;;;8.50;96.80;;;;;;5098138;28;20044;-85
2022/11/18 00:27:23;;;;;;;2.47;0.30;;;8.40;96.90;;;;;;5081501;28;20088;-85
2022/11/18 00:30:17;;;;;;;0.80;0.32;;;8.40;96.90;;;;;;5061716;28;20044;-85
2022/11/18 00:33:02;;;;;;;0.47;0.20;;;8.40;96.90;;;;;;5091169;28;20052;-85
2022/11/18 00:35:59;;;;;;;0.50;0.20;;;8.30;97.00;;;;;;5056778;28;20076;-85
2022/11/18 00:38:44;;;;;;;1.38;0.30;;;8.30;97.00;;;;;;5027783;28;20045;-85
2022/11/18 00:42:49;;;;;;;1.15;0.20;;;8.20;97.00;;;;;;5027198;28;20155;-86
2022/11/18 00:49:19;;;;;;;0.32;0.20;;;8.10;97.20;;;;;;5014421;28;20053;-85
2022/11/18 00:56:46;;;;;;;0.52;0.30;;;8.00;97.20;;;;;;4995125;28;20050;-85
2022/11/18 01:03:31;;;;;;;1.05;0.30;;;8.00;97.20;;;;;;4934796;28;20046;-85
2022/11/18 01:06:19;;;;;;;0.73;0.28;;;8.00;97.20;;;;;;4985119;28;20050;-86
2022/11/18 01:09:05;;;;;;;0.75;0.65;;;8.00;97.20;;;;;;5014712;28;20046;-86
2022/11/18 01:15:05;;;;;;;0.63;0.20;;;8.00;97.20;;;;;;5038871;28;20135;-85
2022/11/18 01:17:45;;;;;;;0.60;0.30;;;7.90;97.20;;;;;;5023507;28;20056;-86
2022/11/18 01:20:45;;;;;;;0.70;0.43;;;7.90;97.20;;;;;;4982910;28;20053;-84
2022/11/18 01:23:25;;;;;;;0.50;0.30;;;8.00;97.30;;;;;;4965668;28;20085;-85
2022/11/18 01:26:26;;;;;;;0.93;0.25;;;8.00;97.20;;;;;;4954925;28;20057;-85
2022/11/18 01:29:18;;;;;;;2.08;0.30;;;8.00;97.20;;;;;;5028546;28;20046;-85
2022/11/18 01:31:51;;;;;;;1.05;0.20;;;8.10;97.20;;;;;;4990168;28;20137;-84
2022/11/18 01:34:51;;;;;;;0.47;0.30;;;8.10;97.20;;;;;;4989540;28;20053;-85
2022/11/18 01:38:31;;;;;;;;;;;;;;;;;;;;;
2022/11/18 01:41:37;;;;;;;0.60;0.20;;;8.10;97.20;;;;;;5034135;28;20098;-86
2022/11/18 01:48:38;;;;;;;0.73;0.20;;;8.20;97.10;;;;;;5053439;28;20068;-84
2022/11/18 01:51:57;;;;;;;1.75;0.40;;;8.10;97.10;;;;;;5027313;28;20052;-85
2022/11/18 02:04:36;;;;;;;0.55;0.17;;;8.10;97.10;;;;;;5109838;28;20053;-84
2022/11/18 02:07:46;;;;;;;0.80;0.20;;;8.10;97.10;;;;;;5014676;28;20057;-86
2022/11/18 02:10:35;;;;;;;0.50;0.20;;;8.10;97.10;;;;;;5010586;28;20045;-85
2022/11/18 02:13:34;;;;;;;0.75;0.30;;;8.10;97.10;;;;;;4985632;28;20132;-85
2022/11/18 02:16:58;;;;;;;0.60;0.20;;;8.10;97.10;;;;;;4992705;28;20080;-86
2022/11/18 02:20:07;;;;;;;0.32;0.20;;;8.10;97.10;;;;;;5016611;28;20056;-87
2022/11/18 02:23:43;;;;;;;0.52;0.20;;;8.20;97.10;;;;;;5007625;28;20049;-85
2022/11/18 02:27:18;;;;;;;0.40;0.20;;;8.20;97.00;;;;;;5082500;28;20054;-85
2022/11/18 02:30:25;;;;;;;0.45;0.20;;;8.20;97.00;;;;;;5055110;28;20080;-86
2022/11/18 02:33:48;;;;;;;0.30;0.20;;;8.20;97.00;;;;;;5044729;28;20500;-86
2022/11/18 02:37:28;;;;;;;1.90;0.30;;;8.20;97.00;;;;;;5039950;28;20060;-86
2022/11/18 02:44:17;;;;;;;0.77;0.20;;;8.10;97.10;;;;;;5015840;28;20046;-86
2022/11/18 02:52:08;;;;;;;0.30;0.22;;;8.10;97.10;;;;;;5047530;28;20112;-84
2022/11/18 02:58:20;;;;;;;;;;;8.10;97.10;;;;;;5053110;28;19909;-85
2022/11/18 03:01:23;;;;;;;0.10;0.10;;;8.10;97.10;;;;;;5052930;28;19916;-83
2022/11/18 03:04:37;;;;;;;0.52;0.20;;;8.20;97.00;;;;;;5057598;28;20461;-83
2022/11/18 03:07:54;;;;;;;0.50;0.20;;;8.30;97.00;;;;;;5054141;28;20054;-82
2022/11/18 03:11:19;;;;;;;;;;;;;;;;;;;;;
2022/11/18 03:14:41;;;;;;;2.15;0.20;;;8.30;97.00;;;;;;5065079;28;20044;-83
2022/11/18 03:17:53;;;;;;;0.55;0.20;;;8.40;97.00;;;;;;5078883;28;20055;-83
2022/11/18 03:21:34;;;;;;;1.58;0.20;;;8.40;96.90;;;;;;5065324;28;20468;-83
2022/11/18 03:24:34;;;;;;;1.65;0.30;;;8.40;96.90;;;;;;4937254;29;20499;-82
2022/11/18 03:27:31;;;;;;;0.82;0.30;;;8.50;96.90;;;;;;4972862;28;20037;-84
2022/11/18 03:30:45;;;;;;;1.30;0.38;;;8.50;96.90;;;;;;5050189;28;20050;-83
2022/11/18 03:33:18;;;;;;;0.73;0.40;;;8.50;96.90;;;;;;5063879;28;20058;-83
2022/11/18 03:36:15;;;;;;;0.90;0.30;;;8.60;96.90;;;;;;5072635;28;20043;-82
2022/11/18 03:39:00;;;;;;;0.75;0.30;;;8.60;96.90;;;;;;5040518;28;20045;-83
2022/11/18 03:42:09;;;;;;;1.27;0.20;;;8.60;96.90;;;;;;5027867;28;20056;-83
2022/11/18 03:45:33;;;;;;;1.40;0.25;;;8.60;96.90;;;;;;5031085;28;20421;-83
2022/11/18 03:48:25;;;;;;;0.60;0.30;;;8.70;96.90;;;;;;5035927;28;20530;-83
2022/11/18 03:51:23;;;;;;;1.58;0.30;;;8.60;96.90;;;;;;5017460;28;20496;-83
2022/11/18 03:54:17;;;;;;;1.13;0.40;;;8.70;96.80;;;;;;5018383;28;20045;-83
2022/11/18 03:57:01;;;;;;;0.75;0.30;;;8.70;96.80;;;;;;5002042;28;20140;-82
2022/11/18 03:59:47;;;;;;;0.85;0.30;;;8.70;96.80;;;;;;5033589;28;20041;-83
2022/11/18 04:02:27;;;;;;;0.98;0.30;;;8.70;96.90;;;;;;5052472;28;20072;-83
2022/11/18 04:05:01;;;;;;;0.65;0.20;;;8.70;96.80;;;;;;5062384;28;20040;-83
2022/11/18 04:07:50;;;;;;;1.20;0.30;;;8.70;96.90;;;;;;5076265;28;20094;-82
2022/11/18 04:10:56;;;;;;;0.95;0.40;;;8.70;96.90;;;;;;5068707;28;20045;-82
2022/11/18 04:13:30;;;;;;;0.35;0.20;;;8.70;96.80;;;;;;5063528;28;20059;-83
2022/11/18 04:16:01;;;;;;;0.68;0.30;;;8.70;96.90;;;;;;5075044;28;20093;-82
2022/11/18 04:18:35;;;;;;;1.00;0.20;;;8.70;96.90;;;;;;5065773;28;20048;-83
2022/11/18 04:21:19;;;;;;;0.47;0.20;;;8.70;96.90;;;;;;5061954;28;20060;-82
2022/11/18 04:23:50;;;;;;;2.10;0.50;;;8.70;96.90;;;;;;5078159;28;20137;-83
2022/11/18 04:26:30;;;;;;;0.93;0.25;;;8.70;97.00;;;;;;5064535;28;20179;-83
2022/11/18 04:28:57;;;;;;;1.48;0.32;;;8.70;96.90;;;;;;5086480;28;20075;-83
2022/11/18 04:31:33;;;;;;;1.23;0.30;;;8.70;97.00;;;;;;5093132;28;20050;-83
2022/11/18 04:34:08;;;;;;;0.60;0.20;;;8.70;96.90;;;;;;5095337;28;20032;-83
2022/11/18 04:36:35;;;;;;;0.70;0.30;;;8.70;96.90;;;;;;5092468;28;20402;-83
2022/11/18 04:39:13;;;;;;;0.55;0.28;;;8.70;96.90;;;;;;5085115;28;20039;-83
2022/11/18 04:42:01;;;;;;;0.60;0.40;;;8.70;96.90;;;;;;5086410;28;20062;-82
2022/11/18 04:44:31;;;;;;;0.80;0.20;;;8.70;96.90;;;;;;5086647;28;20113;-83
2022/11/18 04:47:07;;;;;;;1.17;0.40;;;8.80;96.90;;;;;;5092256;28;20040;-82
2022/11/18 04:49:40;;;;;;;4.43;0.52;;;8.70;96.90;;;;;;5075081;28;20046;-83
2022/11/18 04:52:12;;;;;;;0.82;0.20;;;8.80;97.00;;;;;;5081413;28;20089;-82
2022/11/18 04:54:45;;;;;;;1.60;0.40;;;8.80;97.00;;;;;;5070114;28;20088;-83
2022/11/18 04:57:18;;;;;;;1.33;0.30;;;8.80;96.90;;;;;;5110429;28;20079;-82
2022/11/18 04:59:45;;;;;;;0.45;0.28;;;8.80;96.90;;;;;;5084995;28;20408;-83
2022/11/18 05:02:14;;;;;;;0.82;0.20;;;8.80;96.90;;;;;;5084637;28;20040;-83
2022/11/18 05:04:50;;;;;;;0.75;0.30;;;8.80;96.90;;;;;;5125815;27;20047;-82
2022/11/18 05:07:19;;;;;;;0.80;0.30;;;8.80;96.90;;;;;;5097919;28;20048;-82
2022/11/18 05:09:50;;;;;;;0.85;0.20;;;8.80;96.90;;;;;;5093712;28;20032;-82
2022/11/18 05:12:57;;;;;;;0.75;0.20;;;8.80;97.00;;;;;;5073229;28;20036;-83
2022/11/18 05:15:31;;;;;;;0.50;0.20;;;8.80;96.90;;;;;;5100680;28;20046;-83
2022/11/18 05:18:04;;;;;;;0.80;0.30;;;8.80;96.90;;;;;;5080619;28;20040;-82
2022/11/18 05:20:41;;;;;;;0.55;0.20;;;8.80;96.90;;;;;;5070678;28;20143;-83
2022/11/18 05:23:12;;;;;;;1.25;0.32;;;8.80;96.90;;;;;;5096156;28;20558;-82
2022/11/18 05:25:39;;;;;;;0.50;0.20;;;8.80;97.00;;;;;;5077458;28;20044;-83
2022/11/18 05:28:44;;;;;;;1.27;0.30;;;8.80;97.00;;;;;;5107787;28;20047;-82
2022/11/18 05:31:17;;;;;;;0.85;0.30;;;8.80;97.00;;;;;;5093542;28;20047;-83
2022/11/18 05:34:38;;;;;;;0.90;0.20;;;8.70;96.90;;;;;;5068381;28;20089;-83
2022/11/18 05:37:34;;;;;;;2.78;0.40;;;8.80;97.00;;;;;;5113668;28;20047;-82
2022/11/18 05:40:33;;;;;;;1.35;0.40;;;8.70;97.00;;;;;;5080497;28;20169;-82
2022/11/18 05:43:12;;;;;;;1.17;0.30;;;8.70;97.00;;;;;;5091346;28;20063;-82
2022/11/18 05:45:50;;;;;;;0.50;0.22;;;8.70;97.10;;;;;;5094123;28;20117;-83
2022/11/18 05:48:28;;;;;;;1.10;0.40;;;8.70;97.10;;;;;;5108033;28;20058;-83
2022/11/18 05:51:02;;;;;;;1.00;0.30;;;8.70;97.10;;;;;;5086954;28;20043;-82
2022/11/18 05:53:35;;;;;;;0.93;0.30;;;8.60;97.10;;;;;;5095187;28;20308;-83
2022/11/18 05:56:15;;;;;;;2.30;0.40;;;8.70;97.10;;;;;;5093786;28;20036;-83
2022/11/18 05:58:43;;;;;;;0.60;0.32;;;8.70;97.10;;;;;;5105976;28;20040;-83
2022/11/18 06:01:13;;;;;;;1.27;0.25;;;8.70;97.10;;;;;;5094661;28;20135;-82
2022/11/18 06:03:44;;;;;;;0.63;0.32;;;8.70;97.00;;;;;;5099405;28;20044;-83
2022/11/18 06:06:14;;;;;;;0.98;0.50;;;8.70;97.00;;;;;;5095261;28;20060;-82
2022/11/18 06:09:01;;;;;;;1.20;0.38;;;8.70;97.00;;;;;;5085862;28;20101;-82
2022/11/18 06:11:33;;;;;;;1.27;0.20;;;8.70;97.10;;;;;;5092875;28;20044;-83
2022/11/18 06:14:05;;;;;;;1.08;0.45;;;8.60;97.10;;;;;;5103727;28;20084;-83
2022/11/18 06:16:44;;;;;;;1.55;0.43;;;8.60;97.10;;;;;;5081337;28;20409;-82
2022/11/18 06:19:19;;;;;;;0.20;0.20;;;8.60;97.20;;;;;;5092922;28;20036;-83
2022/11/18 06:21:48;;;;;;;0.93;0.20;;;8.60;97.20;;;;;;5100458;28;20499;-83
2022/11/18 06:24:20;;;;;;;0.93;0.30;;;8.60;97.40;;;;;;5073949;28;20047;-83
2022/11/18 06:26:50;;;;;;;1.17;0.25;;;8.50;97.20;;;;;;5094325;28;20047;-83
2022/11/18 06:29:20;;;;;;;1.38;0.30;;;8.50;97.20;;;;;;5084140;28;20097;-83
2022/11/18 06:31:59;;;;;;;1.08;0.30;;;8.50;97.30;;;;;;5075634;28;20048;-84
2022/11/18 06:34:30;;;;;;;0.85;0.30;;;8.40;97.30;;;;;;5086284;28;20067;-83
2022/11/18 06:37:34;;;;;;;0.95;0.30;;;8.40;97.30;;;;;;5079583;28;20047;-83
2022/11/18 06:40:02;;;;;;;0.30;0.20;;;8.40;97.30;;;;;;5087690;28;20079;-83
2022/11/18 06:45:24;;;;;;;2.15;0.40;;;8.30;97.40;;;;;;5099507;28;20042;-83
2022/11/18 06:47:56;;;;;;;1.00;0.38;;;8.20;97.40;;;;;;5068766;28;20528;-86
2022/11/18 06:50:23;;;;;;;1.05;0.40;;;8.20;97.40;;;;;;5100764;28;20089;-85
2022/11/18 06:52:54;;;;;;;1.25;0.43;;;8.10;97.40;;;;;;5087256;28;20039;-85
2022/11/18 06:55:30;;;;;;;0.90;0.30;;;8.20;97.50;;;;;;5078047;28;20046;-86
2022/11/18 06:57:57;;;;;;;0.93;0.32;;;8.10;97.40;;;;;;5070678;28;20478;-86
2022/11/18 07:00:27;;;;;;;1.30;0.40;;;8.10;97.50;;;;;;5096963;28;20065;-87
2022/11/18 07:02:55;;;;;;;1.45;0.60;;;8.00;97.50;;;;;;5062169;28;20054;-86
2022/11/18 07:05:26;;;;;;;0.77;0.40;;;8.00;97.50;;;;;;5071784;28;20043;-86
2022/11/18 07:07:54;;;;;;;1.25;0.50;;;8.00;97.60;;;;;;5076701;28;20372;-86
2022/11/18 07:10:24;;;;;;;1.10;0.50;;;7.90;97.50;;;;;;5092894;28;20047;-86
2022/11/18 07:12:54;;;;;;;0.93;0.32;;;7.90;97.60;;;;;;5090490;28;20039;-85
2022/11/18 07:15:23;;;;;;;1.05;0.30;;;7.80;97.60;;;;;;5076402;28;20480;-86
2022/11/18 07:17:55;;;;;;;1.08;0.50;;;7.80;97.60;;;;;;5090715;28;20050;-86
2022/11/18 07:20:28;;;;;;;1.67;0.40;;;7.80;97.60;;;;;;5076781;28;20040;-86
2022/11/18 07:23:04;;;;;;;1.27;0.40;;;7.80;97.60;;;;;;5090750;28;20405;-86
2022/11/18 07:25:48;;;;;;;0.55;0.38;;;7.80;97.60;;;;;;5085105;28;20044;-86
2022/11/18 07:28:16;;;;;;;0.98;0.40;;;7.80;97.60;;;;;;5089521;28;20044;-87
2022/11/18 07:30:57;;;;;;;0.88;0.38;;;7.80;97.60;;;;;;5102289;28;20040;-86
2022/11/18 07:33:29;;;;;;;0.98;0.40;;;7.90;97.80;;;;;;5095214;28;20087;-86
2022/11/18 07:36:29;;;;;;;0.90;0.30;;;7.90;97.50;;;;;;5085162;28;20051;-86
2022/11/18 07:39:04;;;;;;;2.03;0.47;;;7.90;97.50;;;;;;5082324;28;20511;-85
2022/11/18 07:41:32;;;;;;;1.10;0.40;;;7.90;97.50;;;;;;5078751;28;20050;-86
2022/11/18 07:44:06;;;;;;;0.80;0.30;;;7.90;97.50;;;;;;5084288;28;20051;-85
2022/11/18 07:46:37;;;;;;;0.75;0.45;;;7.90;97.50;;;;;;5081043;28;20411;-86
2022/11/18 07:49:07;;;;;;;0.80;0.40;;;8.00;97.50;;;;;;5112099;28;20537;-86
2022/11/18 07:51:40;;;;;;;1.38;0.30;;;8.00;97.50;;;;;;5083299;28;20043;-86
2022/11/18 07:54:10;;;;;;;0.90;0.30;;;8.00;97.40;;;;;;5079721;28;20048;-86
2022/11/18 07:56:38;;;;;;;0.82;0.30;;;8.00;97.40;;;;;;5079977;28;20071;-85
2022/11/18 07:59:07;;;;;;;2.58;0.50;;;8.00;97.40;;;;;;5064876;28;20093;-86
2022/11/18 08:01:39;;;;;;;1.90;0.40;;;8.00;97.40;;;;;;5107831;28;20499;-86
2022/11/18 08:04:11;;;;;;;0.60;0.30;;;8.00;97.50;;;;;;5086966;28;20127;-87
2022/11/18 08:06:39;;;;;;;1.10;0.40;;;8.00;97.50;;;;;;5086116;28;20048;-85
2022/11/18 08:09:11;;;;;;;0.70;0.25;;;7.90;97.40;;;;;;5099895;28;20051;-86
2022/11/18 08:11:40;;;;;;;0.80;0.40;;;7.90;97.50;;;;;;5093245;28;20047;-86
2022/11/18 08:14:11;;;;;;;1.30;0.50;;;7.90;97.50;;;;;;5079557;28;20044;-86
2022/11/18 08:16:40;;;;;;;2.17;0.50;;;7.90;97.50;;;;;;5064868;28;20044;-86
2022/11/18 08:19:07;;;;;;;1.58;0.40;;;7.90;97.50;;;;;;5086311;28;20151;-85
2022/11/18 08:21:35;;;;;;;0.95;0.40;;;7.90;97.50;;;;;;5115088;28;20112;-86
2022/11/18 08:24:02;;;;;;;0.80;0.35;;;7.90;97.50;;;;;;5099492;28;20054;-85
2022/11/18 08:26:33;;;;;;;1.60;0.60;;;7.90;97.50;;;;;;5055842;28;20072;-86
2022/11/18 08:29:03;;;;;;;0.80;0.40;;;8.00;97.50;;;;;;5102828;28;20044;-86
2022/11/18 08:31:30;;;;;;;1.42;0.50;;;8.00;97.50;;;;;;5093582;28;20036;-86
2022/11/18 08:34:00;;;;;;;1.48;0.50;;;8.00;97.50;;;;;;5079040;28;20056;-85
2022/11/18 08:36:33;;;;;;;1.17;0.40;;;8.00;97.50;;;;;;5108173;28;20078;-86
2022/11/18 08:39:08;;;;;;;1.95;0.60;;;8.00;97.50;;;;;;5093190;28;20079;-86
2022/11/18 08:41:42;;;;;;;1.70;0.50;;;8.00;97.50;;;;;;5078844;28;20048;-86
2022/11/18 08:44:15;;;;;;;2.03;0.40;;;8.00;97.50;;;;;;5104583;28;20036;-86
2022/11/18 08:46:46;;;;;;;1.00;0.40;;;8.00;97.50;;;;;;5109812;28;20071;-86
2022/11/18 08:49:13;;;;;;;1.17;0.52;;;8.00;97.50;;;;;;5104195;28;20048;-86
2022/11/18 08:51:41;;;;;;;0.75;0.45;;;8.00;97.50;;;;;;5101193;28;20094;-85
2022/11/18 08:54:08;;;;;;;0.85;0.40;;;8.00;97.50;;;;;;5093870;28;20055;-86
2022/11/18 08:56:35;;;;;;;1.20;0.38;;;8.10;97.50;;;;;;5104698;28;20044;-86
2022/11/18 08:59:05;;;;;;;0.70;0.32;;;8.10;97.50;;;;;;5101489;28;20117;-86
2022/11/18 09:01:33;;;;;;;1.10;0.40;;;8.20;97.50;;;;;;5098274;28;20040;-86
2022/11/18 09:04:00;;;;;;;1.23;0.80;;;8.20;97.50;;;;;;5078998;28;20048;-89
2022/11/18 09:06:27;;;;;;;0.80;0.40;;;8.20;97.60;;;;;;5084775;28;20051;-85
2022/11/18 09:08:54;;;;;;;1.58;0.60;;;8.20;97.40;;;;;;5102741;28;20044;-89
2022/11/18 09:11:24;;;;;;;1.58;0.50;;;8.30;97.40;;;;;;5111748;28;20035;-86
2022/11/18 09:13:59;;;;;;;1.13;0.40;;;8.20;97.30;;;;;;5101032;27;20048;-86
2022/11/18 09:16:47;;;;;;;0.75;0.30;;;8.30;97.30;;;;;;5106198;28;20059;-88
2022/11/18 09:19:15;;;;;;;1.88;0.57;;;8.30;97.30;;;;;;5082196;28;20043;-89
2022/11/18 09:22:03;;;;;;;1.30;0.60;;;8.30;97.30;;;;;;5088165;28;20133;-90
2022/11/18 09:24:31;;;;;;;0.80;0.30;;;8.30;97.30;;;;;;5083379;28;20040;-89
2022/11/18 09:26:58;;;;;;;3.90;0.60;;;8.40;97.30;;;;;;5082314;28;20044;-89
2022/11/18 09:29:25;;;;;;;2.05;0.60;;;8.40;97.40;;;;;;5078286;28;20405;-90
2022/11/18 09:31:53;;;;;;;2.38;1.00;;;8.50;97.20;;;;;;5080689;28;20040;-89
2022/11/18 09:34:21;;;;;;;1.35;0.60;;;8.60;97.20;;;;;;5090578;28;20055;-89
2022/11/18 09:36:48;;;;;;;2.40;0.77;;;8.70;97.10;;;;;;5098591;28;20043;-88
2022/11/18 09:39:16;;;;;;;1.90;0.80;;;8.70;97.00;;;;;;5078284;28;20097;-89
2022/11/18 09:41:52;;;;;;;1.90;0.60;;;8.80;97.00;;;;;;5102158;28;20066;-89
2022/11/18 09:44:38;;;;;;;0.98;0.50;;;8.90;97.00;;;;;;5104659;28;20070;-89
2022/11/18 09:47:31;;;;;;;1.77;0.57;;;9.00;97.00;;;;;;5094570;28;20044;-88
2022/11/18 09:50:13;;;;;;;1.10;0.50;;;9.00;96.90;;;;;;5098854;28;20043;-88
2022/11/18 09:53:09;;;;;;;1.05;0.40;;;9.00;96.90;;;;;;5086670;28;20123;-88
2022/11/18 09:55:47;;;;;;;2.38;0.47;;;9.00;96.90;;;;;;5090164;28;20400;-86
2022/11/18 09:58:25;;;;;;;2.83;0.60;;;9.00;96.90;;;;;;5097300;28;20048;-88
2022/11/18 10:00:55;;;;;;;1.30;0.63;;;9.00;96.90;;;;;;5104430;28;20479;-89
2022/11/18 10:03:28;;;;;;;1.42;0.63;;;9.10;96.90;;;;;;5072429;28;20086;-89
2022/11/18 10:06:10;;;;;;;1.25;0.40;;;9.10;96.90;;;;;;5078640;28;20115;-89
2022/11/18 10:08:57;;;;;;;1.35;0.68;;;9.20;96.80;;;;;;5084570;28;20147;-90
2022/11/18 10:11:31;;;;;;;1.52;0.65;;;9.20;96.80;;;;;;5086601;28;20506;-87
2022/11/18 10:14:40;;;;;;;1.20;0.52;;;9.20;96.80;;;;;;5085703;28;20047;-87
2022/11/18 10:17:19;;;;;;;1.55;0.45;;;9.30;96.80;;;;;;5077278;28;20043;-87
2022/11/18 10:19:49;;;;;;;1.13;0.63;;;9.20;96.80;;;;;;5092017;28;20070;-87
2022/11/18 10:26:40;;;;;;;1.50;0.60;;;9.20;96.80;;;;;;5093972;28;20599;-89
2022/11/18 10:29:09;;;;;;;1.58;0.60;;;9.10;96.90;;;;;;5087985;28;20051;-87
2022/11/18 10:31:51;;;;;;;1.13;0.47;;;9.10;96.90;;;;;;5090709;28;20048;-87
2022/11/18 10:34:19;;;;;;;0.75;0.40;;;9.10;96.80;;;;;;5093513;28;20150;-88
2022/11/18 10:37:07;;;;;;;0.70;0.30;;;9.00;96.90;;;;;;5080488;28;20104;-86
2022/11/18 10:39:53;;;;;;;1.05;0.40;;;9.00;96.90;;;;;;5096589;28;20047;-87
2022/11/18 10:42:34;;;;;;;0.85;0.40;;;9.00;96.90;;;;;;5096680;28;20144;-82
2022/11/18 10:45:20;;;;;;;1.40;0.50;;;8.90;97.00;;;;;;5108397;28;20134;-83
2022/11/18 10:48:06;;;;;;;1.10;0.60;;;8.90;97.00;;;;;;5085154;28;20567;-81
2022/11/18 10:50:40;;;;;;;1.08;0.50;;;8.90;97.00;;;;;;5095312;28;20055;-81
2022/11/18 10:53:31;;;;;;;1.60;0.60;;;8.80;97.00;;;;;;5100086;28;20044;-82
2022/11/18 10:55:59;;;;;;;2.17;0.65;;;8.90;97.00;;;;;;5107723;28;20046;-84
2022/11/18 10:58:29;;;;;;;2.45;0.70;;;8.80;97.00;;;;;;5086322;28;20475;-84
2022/11/18 11:01:18;;;;;;;1.20;0.60;;;8.90;97.00;;;;;;5079306;28;20047;-84
2022/11/18 11:04:00;;;;;;;1.75;0.75;;;8.90;97.00;;;;;;5096177;28;20048;-87
2022/11/18 11:06:33;;;;;;;1.23;0.55;;;9.00;97.00;;;;;;5079194;28;20048;-89
2022/11/18 11:09:14;;;;;;;1.95;0.77;;;9.00;97.00;;;;;;5105135;28;20458;-87
2022/11/18 11:11:54;;;;;;;2.28;1.00;;;9.00;97.00;;;;;;5076345;28;20044;-85
2022/11/18 11:14:23;;;;;;;2.30;1.08;;;9.00;97.00;;;;;;5090160;28;20597;-85
2022/11/18 11:16:56;;;;;;;3.40;0.77;;;9.00;96.90;;;;;;5098185;28;20103;-88
2022/11/18 11:19:31;;;;;;;4.25;1.75;;;9.10;96.90;;;;;;5089100;28;20044;-88
2022/11/18 11:21:58;;;;;;;1.60;0.80;;;9.10;96.80;;;;;;5082564;28;20048;-85
2022/11/18 11:24:27;;;;;;;1.60;0.77;;;9.20;96.80;;;;;;5086724;28;20052;-86
2022/11/18 11:27:24;;;;;;;1.55;0.60;;;9.20;96.80;;;;;;5060030;28;20055;-85
2022/11/18 11:30:16;;;;;;;2.58;1.38;;;9.30;96.80;;;;;;5109590;28;20126;-87
2022/11/18 11:32:43;;;;;;;;;;;9.50;96.70;;;;;;5089184;28;20039;-86
2022/11/18 11:35:25;;;;;;;0.98;0.40;;;9.50;96.70;;;;;;5110091;28;19963;-85
2022/11/18 11:37:57;;;;;;;2.13;0.80;;;9.60;96.60;;;;;;5109156;28;20072;-85
2022/11/18 11:40:37;;;;;;;1.15;0.60;;;9.70;96.50;;;;;;5094952;28;20048;-87
2022/11/18 11:43:28;;;;;;;2.25;0.50;;;9.80;96.50;;;;;;5081548;28;20073;-79
2022/11/18 11:46:17;;;;;;;1.80;0.43;;;10.00;96.40;;;;;;5097134;28;20492;-82
2022/11/18 11:49:02;;;;;;;2.25;1.10;;;10.10;96.30;;;;;;5094343;28;20054;-84
2022/11/18 11:51:41;;;;;;;1.92;0.90;;;10.10;96.20;;;;;;5098883;28;20128;-84
2022/11/18 11:54:23;;;;;;;1.77;0.80;;;10.20;96.10;;;;;;5085965;28;20047;-84
2022/11/18 11:56:54;;;;;;;1.15;0.47;;;10.20;96.10;;;;;;5097698;28;20483;-82
2022/11/18 11:59:58;;;;;;;1.60;0.50;;;10.30;96.10;;;;;;5079298;28;20102;-86
2022/11/18 12:03:07;;;;;;;3.28;0.70;;;10.20;96.10;;;;;;5109499;28;20044;-83
2022/11/18 12:05:40;;;;;;;1.02;0.40;;;10.10;96.20;;;;;;5097342;28;20489;-85
2022/11/18 12:08:16;;;;;;;2.55;0.60;;;10.00;96.30;;;;;;5098598;28;20377;-82
2022/11/18 12:11:02;;;;;;;1.08;0.50;;;10.00;96.40;;;;;;5104955;28;20073;-82
2022/11/18 12:14:13;;;;;;;2.20;0.68;;;10.00;96.40;;;;;;5079728;28;20134;-79
2022/11/18 12:16:52;;;;;;;2.50;0.90;;;10.00;96.40;;;;;;5087274;28;20075;-84
2022/11/18 12:19:25;;;;;;;2.50;0.82;;;9.90;96.40;;;;;;5105981;28;20072;-83
2022/11/18 12:21:59;;;;;;;2.00;1.00;;;10.00;96.50;;;;;;5082151;28;20082;-85
2022/11/18 12:24:30;;;;;;;1.80;0.90;;;10.00;96.40;;;;;;5097549;28;20040;-84
2022/11/18 12:27:29;;;;;;;1.90;0.95;;;10.10;96.40;;;;;;5098831;28;20113;-83
2022/11/18 12:30:00;;;;;;;2.53;1.20;;;10.10;96.30;;;;;;5100845;28;20142;-83
2022/11/18 12:32:41;;;;;;;1.85;0.70;;;10.10;96.30;;;;;;5104744;28;20047;-82
2022/11/18 12:35:11;;;;;;;1.55;0.80;;;10.20;96.30;;;;;;5109256;28;20044;-82
2022/11/18 12:37:44;;;;;;;1.83;0.50;;;10.30;96.30;;;;;;5106234;28;20046;-83
2022/11/18 12:40:33;;;;;;;1.23;0.68;;;10.60;96.20;;;;;;5084145;28;20051;-83
2022/11/18 12:45:51;;;;;;;1.13;0.60;;;10.80;95.90;;;;;;5095185;28;20134;-79
2022/11/18 12:48:30;;;;;;;1.27;0.60;;;11.00;95.80;;;;;;5109202;28;20109;-88
2022/11/18 12:51:17;;;;;;;1.10;0.65;;;11.10;95.70;;;;;;5086854;28;20495;-84
2022/11/18 12:53:47;;;;;;;2.17;0.90;;;11.10;95.60;;;;;;5110565;28;20040;-82
2022/11/18 12:56:17;;;;;;;2.03;0.90;;;11.10;95.70;;;;;;5096674;28;20126;-84
2022/11/18 12:58:55;;;;;;;1.95;0.68;;;11.10;95.70;;;;;;5095236;28;20093;-87
2022/11/18 13:01:26;;;;;;;1.83;0.70;;;11.10;95.70;;;;;;5082439;28;20051;-87
2022/11/18 13:04:13;;;;;;;2.80;0.95;;;11.00;95.80;;;;;;5098197;28;20058;-88
2022/11/18 13:06:41;;;;;;;1.52;0.60;;;10.90;95.80;;;;;;5115441;28;20354;-87
2022/11/18 13:09:18;;;;;;;2.95;1.08;;;10.90;96.20;;;;;;5084405;28;20036;-85
2022/11/18 13:11:52;;;;;;;3.55;0.82;;;10.90;95.90;;;;;;5078792;28;20044;-88
2022/11/18 13:20:39;;;;;;;2.50;0.93;;;10.80;95.90;;;;;;5058045;28;20113;-91
2022/11/18 13:26:06;;;;;;;2.05;0.90;;;10.70;96.00;;;;;;5096912;28;20044;-87
2022/11/18 13:29:03;;;;;;;1.35;0.88;;;10.70;96.00;;;;;;5086637;28;20044;-86
2022/11/18 13:35:28;;;;;;;2.00;0.70;;;10.70;96.00;;;;;;5097850;28;20460;-87
2022/11/18 13:37:55;;;;;;;2.33;0.77;;;10.70;96.00;;;;;;5091461;28;20039;-84
2022/11/18 13:40:26;;;;;;;1.85;0.70;;;10.80;96.00;;;;;;5114418;28;20083;-84
2022/11/18 13:42:53;;;;;;;2.22;0.85;;;10.80;95.90;;;;;;5115207;28;20047;-86
2022/11/18 13:45:25;;;;;;;1.80;0.88;;;10.80;95.90;;;;;;5094552;28;20126;-88
2022/11/18 13:47:54;;;;;;;2.00;1.15;;;10.80;95.80;;;;;;5094526;28;20040;-81
2022/11/18 13:50:50;;;;;;;2.70;0.90;;;10.80;95.80;;;;;;5097173;28;20081;-81
2022/11/18 13:53:17;;;;;;;3.83;1.00;;;10.90;95.70;;;;;;5100141;28;20242;-83
2022/11/18 13:55:55;;;;;;;1.88;0.60;;;10.90;95.70;;;;;;5087016;28;20044;-83
2022/11/18 13:58:34;;;;;;;1.25;0.63;;;10.90;95.80;;;;;;5113878;28;20047;-85
2022/11/18 14:01:22;;;;;;;1.92;0.80;;;10.90;95.70;;;;;;5100241;28;20039;-87
2022/11/18 14:03:51;;;;;;;1.08;0.80;;;10.90;95.70;;;;;;5103799;28;20097;-87
2022/11/18 14:06:36;;;;;;;1.92;0.68;;;10.90;95.60;;;;;;5078016;28;20135;-85
2022/11/18 14:09:04;;;;;;;4.70;0.88;;;11.00;95.60;;;;;;5091554;28;20047;-87
2022/11/18 14:11:38;;;;;;;2.10;0.75;;;10.90;95.70;;;;;;5098132;28;20044;-89
2022/11/18 14:14:05;;;;;;;1.77;0.70;;;10.90;95.70;;;;;;5097999;28;20044;-90
2022/11/18 14:16:37;;;;;;;2.00;0.70;;;10.90;95.70;;;;;;5098091;28;20040;-89
2022/11/18 14:19:04;;;;;;;2.38;0.88;;;10.80;95.70;;;;;;5081372;28;20044;-89
2022/11/18 14:21:33;;;;;;;1.77;0.60;;;10.80;95.80;;;;;;5081748;28;20096;-89
2022/11/18 14:24:01;;;;;;;3.08;0.80;;;10.80;95.80;;;;;;5098844;28;20048;-89
2022/11/18 14:26:36;;;;;;;1.92;0.65;;;10.80;95.80;;;;;;5097845;28;20052;-89
2022/11/18 14:29:22;;;;;;;1.15;0.50;;;10.80;95.80;;;;;;5098134;28;20051;-90
2022/11/18 14:32:27;;;;;;;2.58;0.77;;;10.80;95.80;;;;;;5097467;28;20085;-89
2022/11/18 14:35:00;;;;;;;1.52;0.60;;;10.80;95.80;;;;;;5039975;28;20044;-89
2022/11/18 14:37:29;;;;;;;1.35;0.60;;;10.80;96.00;;;;;;5089001;28;20040;-89
2022/11/18 14:39:57;;;;;;;1.20;0.40;;;10.80;95.80;;;;;;5060675;28;20039;-89
2022/11/18 14:42:24;;;;;;;1.52;0.57;;;10.90;95.80;;;;;;5078266;28;20048;-87
2022/11/18 14:44:51;;;;;;;0.88;0.40;;;10.90;95.80;;;;;;5075157;28;20047;-89
2022/11/18 14:47:29;;;;;;;3.05;0.57;;;10.90;95.80;;;;;;5081550;28;20039;-88
2022/11/18 14:49:55;;;;;;;1.35;0.52;;;10.90;95.80;;;;;;5113689;28;20044;-88
2022/11/18 14:52:23;;;;;;;1.27;0.40;;;10.80;95.80;;;;;;5080340;28;20482;-88
2022/11/18 14:54:51;;;;;;;1.63;0.70;;;10.80;95.80;;;;;;5080550;28;20048;-88
2022/11/18 14:57:18;;;;;;;1.48;0.47;;;10.70;95.80;;;;;;5098340;28;20040;-86
2022/11/18 14:59:45;;;;;;;3.33;0.50;;;10.70;95.90;;;;;;5076708;28;20052;-88
2022/11/18 15:02:15;;;;;;;0.70;0.40;;;10.60;95.90;;;;;;5076610;28;20047;-88
2022/11/18 15:04:42;;;;;;;1.58;0.60;;;10.50;96.00;;;;;;5093487;28;20097;-88
2022/11/18 15:07:14;;;;;;;1.75;0.60;;;10.40;96.10;;;;;;5076812;28;20388;-89
2022/11/18 15:09:49;;;;;;;2.38;0.68;;;10.20;96.20;;;;;;5093142;28;20060;-85
2022/11/18 15:12:16;;;;;;;1.08;0.50;;;10.10;96.30;;;;;;5084043;28;20051;-84
2022/11/18 15:14:43;;;;;;;1.55;0.50;;;10.00;96.40;;;;;;5082929;28;20036;-83